F\v Arau — FODR — position and weather

sailwx.info

Track history (hours):
 
Tides and Currents Weather Stations Pressure Air Temp Water Temp Dewpoint Dewpoint Depression Visibility Wind Speed Wind Dir Waves Ship Positions

F\v Arau

Last reported at 2017-Dec-02 02:38 UTC. Time now 2017-Dec-11 02:23 UTC.
Position S 22°23' E 166°42'.
Warning: this ship's position is 8 days out of date.

Length 21 m; draft 2.9 m.

Type: Fishing. MMSI: 540001900.

Date/timePositionNaut miles runAvg speedWind from/ knotsBaromVisibWave heightAir tempDewpointWater temp
2017-Dec-02 02:38S 22°23' E 166°42'1 7.8
2017-Dec-02 02:28S 22°23' E 166°40'4 7.9
2017-Dec-02 02:00S 22°23' E 166°36'4 7.9
2017-Dec-02 01:30S 22°21' E 166°32'4 7.9
2017-Dec-02 01:00S 22°20' E 166°28'4 7.8
2017-Dec-02 00:30S 22°18' E 166°25'4 7.3
2017-Dec-02 00:00S 22°15' E 166°23'2 4.8
2017-Dec-01 23:30S 22°16' E 166°25'0 0.0
2017-Dec-01 23:00S 22°16' E 166°25'0 0.0
2017-Dec-01 22:30S 22°16' E 166°25'0 0.0
2017-Dec-01 22:00S 22°16' E 166°25'0 0.0
2017-Dec-01 21:30S 22°16' E 166°25'0 0.0
2017-Nov-29 21:14S 22°16' E 166°25'0 0.0
2017-Nov-29 21:00S 22°16' E 166°25'0 0.0
2017-Nov-29 20:30S 22°16' E 166°25'0 0.0
2017-Nov-29 04:25S 22°16' E 166°25'0 0.0
2017-Nov-29 04:00S 22°16' E 166°25'0 0.0
2017-Nov-29 03:30S 22°16' E 166°25'0 0.0
2017-Nov-29 03:00S 22°16' E 166°25'0 0.0
2017-Nov-29 02:30S 22°16' E 166°25'0 0.0
2017-Nov-29 02:00S 22°16' E 166°25'0 0.0
2017-Nov-29 01:30S 22°16' E 166°25'0 0.0
2017-Nov-29 01:00S 22°16' E 166°25'0 0.0
2017-Nov-29 00:30S 22°16' E 166°25'0 0.0
2017-Nov-29 00:00S 22°16' E 166°25'0 0.0
2017-Nov-28 23:30S 22°16' E 166°25'0 0.0
2017-Nov-28 23:00S 22°16' E 166°25'0 0.0
2017-Nov-28 22:30S 22°16' E 166°25'0 0.0
2017-Nov-28 22:00S 22°16' E 166°25'0 0.0
2017-Nov-28 21:30S 22°16' E 166°25'0 0.0
2017-Nov-28 21:00S 22°16' E 166°25'0 0.0
2017-Nov-28 20:30S 22°16' E 166°25'0 0.0
2017-Nov-28 20:00S 22°16' E 166°25'0 0.0
2017-Nov-28 19:30S 22°16' E 166°25'0 0.0
2017-Nov-28 19:00S 22°16' E 166°25'0 0.0
2017-Nov-28 18:30S 22°16' E 166°25'0 0.0
2017-Nov-28 18:00S 22°16' E 166°25'0 0.0
2017-Nov-28 17:30S 22°16' E 166°25'0 0.0
2017-Nov-28 17:00S 22°16' E 166°25'0 0.0
2017-Nov-28 16:30S 22°16' E 166°25'0 0.0
2017-Nov-28 16:00S 22°16' E 166°25'0 0.0
2017-Nov-28 15:00S 22°16' E 166°25'0 0.0
2017-Nov-28 14:30S 22°16' E 166°25'0 0.0
2017-Nov-28 14:00S 22°16' E 166°25'0 0.0
2017-Nov-28 13:30S 22°16' E 166°25'0 0.0
2017-Nov-28 13:00S 22°16' E 166°25'0 0.0
2017-Nov-28 12:30S 22°16' E 166°25'0 0.0
2017-Nov-28 12:00S 22°16' E 166°25'0 0.0
2017-Nov-28 11:30S 22°16' E 166°25'0 0.0
2017-Nov-28 11:00S 22°16' E 166°25'0 0.0
2017-Nov-28 10:30S 22°16' E 166°25'0 0.0
2017-Nov-28 10:00S 22°16' E 166°25'0 0.0
2017-Nov-28 09:30S 22°16' E 166°25'0 0.0
2017-Nov-28 09:00S 22°16' E 166°25'0 0.0
2017-Nov-28 08:30S 22°16' E 166°25'0 0.0
2017-Nov-28 08:00S 22°16' E 166°25'0 0.0
2017-Nov-28 07:30S 22°16' E 166°25'0 0.0
2017-Nov-28 07:00S 22°16' E 166°25'0 0.0
2017-Nov-28 06:30S 22°16' E 166°25'0 0.0
2017-Nov-28 06:00S 22°16' E 166°25'0 0.0
2017-Nov-28 05:30S 22°16' E 166°25'0 0.0
2017-Nov-28 04:30S 22°16' E 166°25'0 0.0
2017-Nov-28 04:00S 22°16' E 166°25'0 0.0
2017-Nov-28 03:30S 22°16' E 166°25'0 0.0
2017-Nov-28 03:00S 22°16' E 166°25'0 0.0
2017-Nov-28 02:30S 22°16' E 166°25'0 0.0
2017-Nov-28 02:00S 22°16' E 166°25'0 0.0
2017-Nov-28 01:30S 22°16' E 166°25'0 0.0
2017-Nov-28 01:00S 22°16' E 166°25'0 0.0
2017-Nov-28 00:30S 22°16' E 166°25'0 0.0
2017-Nov-28 00:00S 22°16' E 166°25'0 0.0
2017-Nov-27 23:30S 22°16' E 166°25'0 0.0
2017-Nov-27 23:00S 22°16' E 166°25'0 0.0
2017-Nov-27 22:30S 22°16' E 166°25'0 0.0
2017-Nov-27 22:00S 22°16' E 166°25'0 0.0
2017-Nov-27 21:30S 22°16' E 166°25'1 1.5
2017-Nov-27 21:00S 22°16' E 166°25'2 3.2
2017-Nov-27 20:30S 22°17' E 166°23'4 8.3
2017-Nov-27 20:00S 22°20' E 166°27'4 8.5
2017-Nov-27 19:30S 22°21' E 166°31'4 8.4
2017-Nov-27 19:00S 22°22' E 166°35'5 8.7
2017-Nov-27 18:27S 22°23' E 166°40'  
Track history (hours):
 
Tides and Currents Weather Stations Pressure Air Temp Water Temp Dewpoint Dewpoint Depression Visibility Wind Speed Wind Dir Waves Ship Positions

F\v Arau

Last reported at 2017-Dec-02 02:38 UTC. Time now 2017-Dec-11 02:23 UTC.
Position S 22°23' E 166°42'.
Warning: this ship's position is 8 days out of date.

Length 21 m; draft 2.9 m.

Type: Fishing. MMSI: 540001900.

Date/timePositionNaut miles runAvg speedWind from/ knotsBaromVisibWave heightAir tempDewpointWater temp
2017-Dec-02 02:38S 22°23' E 166°42'1 7.8
2017-Dec-02 02:28S 22°23' E 166°40'4 7.9
2017-Dec-02 02:00S 22°23' E 166°36'4 7.9
2017-Dec-02 01:30S 22°21' E 166°32'4 7.9
2017-Dec-02 01:00S 22°20' E 166°28'4 7.8
2017-Dec-02 00:30S 22°18' E 166°25'4 7.3
2017-Dec-02 00:00S 22°15' E 166°23'2 4.8
2017-Dec-01 23:30S 22°16' E 166°25'0 0.0
2017-Dec-01 23:00S 22°16' E 166°25'0 0.0
2017-Dec-01 22:30S 22°16' E 166°25'0 0.0
2017-Dec-01 22:00S 22°16' E 166°25'0 0.0
2017-Dec-01 21:30S 22°16' E 166°25'0 0.0
2017-Nov-29 21:14S 22°16' E 166°25'0 0.0
2017-Nov-29 21:00S 22°16' E 166°25'0 0.0
2017-Nov-29 20:30S 22°16' E 166°25'0 0.0
2017-Nov-29 04:25S 22°16' E 166°25'0 0.0
2017-Nov-29 04:00S 22°16' E 166°25'0 0.0
2017-Nov-29 03:30S 22°16' E 166°25'0 0.0
2017-Nov-29 03:00S 22°16' E 166°25'0 0.0
2017-Nov-29 02:30S 22°16' E 166°25'0 0.0
2017-Nov-29 02:00S 22°16' E 166°25'0 0.0
2017-Nov-29 01:30S 22°16' E 166°25'0 0.0
2017-Nov-29 01:00S 22°16' E 166°25'0 0.0
2017-Nov-29 00:30S 22°16' E 166°25'0 0.0
2017-Nov-29 00:00S 22°16' E 166°25'0 0.0
2017-Nov-28 23:30S 22°16' E 166°25'0 0.0
2017-Nov-28 23:00S 22°16' E 166°25'0 0.0
2017-Nov-28 22:30S 22°16' E 166°25'0 0.0
2017-Nov-28 22:00S 22°16' E 166°25'0 0.0
2017-Nov-28 21:30S 22°16' E 166°25'0 0.0
2017-Nov-28 21:00S 22°16' E 166°25'0 0.0
2017-Nov-28 20:30S 22°16' E 166°25'0 0.0
2017-Nov-28 20:00S 22°16' E 166°25'0 0.0
2017-Nov-28 19:30S 22°16' E 166°25'0 0.0
2017-Nov-28 19:00S 22°16' E 166°25'0 0.0
2017-Nov-28 18:30S 22°16' E 166°25'0 0.0
2017-Nov-28 18:00S 22°16' E 166°25'0 0.0
2017-Nov-28 17:30S 22°16' E 166°25'0 0.0
2017-Nov-28 17:00S 22°16' E 166°25'0 0.0
2017-Nov-28 16:30S 22°16' E 166°25'0 0.0
2017-Nov-28 16:00S 22°16' E 166°25'0 0.0
2017-Nov-28 15:00S 22°16' E 166°25'0 0.0
2017-Nov-28 14:30S 22°16' E 166°25'0 0.0
2017-Nov-28 14:00S 22°16' E 166°25'0 0.0
2017-Nov-28 13:30S 22°16' E 166°25'0 0.0
2017-Nov-28 13:00S 22°16' E 166°25'0 0.0
2017-Nov-28 12:30S 22°16' E 166°25'0 0.0
2017-Nov-28 12:00S 22°16' E 166°25'0 0.0
2017-Nov-28 11:30S 22°16' E 166°25'0 0.0
2017-Nov-28 11:00S 22°16' E 166°25'0 0.0
2017-Nov-28 10:30S 22°16' E 166°25'0 0.0
2017-Nov-28 10:00S 22°16' E 166°25'0 0.0
2017-Nov-28 09:30S 22°16' E 166°25'0 0.0
2017-Nov-28 09:00S 22°16' E 166°25'0 0.0
2017-Nov-28 08:30S 22°16' E 166°25'0 0.0
2017-Nov-28 08:00S 22°16' E 166°25'0 0.0
2017-Nov-28 07:30S 22°16' E 166°25'0 0.0
2017-Nov-28 07:00S 22°16' E 166°25'0 0.0
2017-Nov-28 06:30S 22°16' E 166°25'0 0.0
2017-Nov-28 06:00S 22°16' E 166°25'0 0.0
2017-Nov-28 05:30S 22°16' E 166°25'0 0.0
2017-Nov-28 04:30S 22°16' E 166°25'0 0.0
2017-Nov-28 04:00S 22°16' E 166°25'0 0.0
2017-Nov-28 03:30S 22°16' E 166°25'0 0.0
2017-Nov-28 03:00S 22°16' E 166°25'0 0.0
2017-Nov-28 02:30S 22°16' E 166°25'0 0.0
2017-Nov-28 02:00S 22°16' E 166°25'0 0.0
2017-Nov-28 01:30S 22°16' E 166°25'0 0.0
2017-Nov-28 01:00S 22°16' E 166°25'0 0.0
2017-Nov-28 00:30S 22°16' E 166°25'0 0.0
2017-Nov-28 00:00S 22°16' E 166°25'0 0.0
2017-Nov-27 23:30S 22°16' E 166°25'0 0.0
2017-Nov-27 23:00S 22°16' E 166°25'0 0.0
2017-Nov-27 22:30S 22°16' E 166°25'0 0.0
2017-Nov-27 22:00S 22°16' E 166°25'0 0.0
2017-Nov-27 21:30S 22°16' E 166°25'1 1.5
2017-Nov-27 21:00S 22°16' E 166°25'2 3.2
2017-Nov-27 20:30S 22°17' E 166°23'4 8.3
2017-Nov-27 20:00S 22°20' E 166°27'4 8.5
2017-Nov-27 19:30S 22°21' E 166°31'4 8.4
2017-Nov-27 19:00S 22°22' E 166°35'5 8.7
2017-Nov-27 18:27S 22°23' E 166°40'  

Dump ship's entire track history